Billings, MT

6:11 PM MDT on August 28, 2014 (GMT -0600)
Downtown Billings | Change Station
CLOSE
Current Station
Personal Weather Station
Location: Billings, MT
Elevation: 3127 ft
Nearby Weather Stations

Elev 3127 ft 45.78 °N, 108.50 °W | Updated 34 minutes ago

Partly Cloudy
Partly Cloudy
88.1 °F
Feels Like 85 °F
N
4.0
Wind Variable Wind from NW
Gusts 8.5 mph

Today
High -- | Low -- °F
--% Chance of Precip.
Yesterday
High -- | Low -- °F
Precip. -- in
6:30 AM 7:59 PM
Waxing Crescent, 10% visible
Pressure 29.81 in
Visibility 10.0 miles
Clouds Few 9500 ft
Heat Index 85 °F
Dew Point 46 °F
Humidity 22%
Rainfall -999.00 in
Snow Depth Not available.
UV 2 out of 12
Pollen 8.80 out of 12
Air Quality Not available.
Flu Activity Not available.
METAR KBIL 282353Z 02003KT 10SM FEW095 31/06 A2992 RMK AO2 SLP095 T03060061 10317 20267 56014

More Conditions Fewer Conditions

Pressure 29.81 in
Visibility 10.0 miles
Clouds Few 9500 ft
Heat Index 85 °F
Dew Point 46 °F
Humidity 22%
Rainfall -999.00 in
Snow Depth Not available.
UV 2 out of 12
Pollen 8.80 out of 12
Air Quality Not available.
Flu Activity Not available.
METAR KBIL 282353Z 02003KT 10SM FEW095 31/06 A2992 RMK AO2 SLP095 T03060061 10317 20267 56014

More Conditions Fewer Conditions

10-Day Weather Forecast

Almanac

Astronomy

Aug. 28, 2014 Rise Set
Actual Time 6:30 AM MDT 7:59 PM MDT
Civil Twilight 5:58 AM MDT 8:30 PM MDT
Nautical Twilight 5:21 AM MDT 9:07 PM MDT
Astronomical Twilight 4:40 AM MDT 9:48 PM MDT
Moon 9:36 AM MDT (8/28) 9:12 PM MDT (8/28)
Length of Visible Light 14h 31m
Length of Day
13h 29m
Tomorrow will be 3m 4s shorter.
Waxing Crescent, 10% of the Moon is Illuminated
Today
Waxing Crescent
Sep 2
First Quarter
Sep 8
Full
Sep 15
Last Quarter
Sep 24
New

Today's Extremes

State Highs State Lows

Community

WunderPhotos

Upload Photos

1,748,106 photos uploaded!

Nearby

Snow Depth

Station Depth Elevation
White Mill 1 in 8700 ft
Northeast Entrance 0 in 7350 ft
Shower Falls 0 in 8100 ft
Lone Mountain 1 in 8880 ft
Black Bear 1 in 8150 ft

Earthquake Activity

City Distance Mag. Time & Date
No recent earthquake activity has been reported nearby.
Minimum magnitude displayed is 2.5.

Coastal Water Temperatures

Place Temperature
No Stations Reporting

Nearby Weather Stations